createdAt,value
2023-01-24T14:47:36.392Z,94348.16
2023-01-24T14:50:42.512Z,94353.81
2023-01-24T14:53:51.609Z,94348.53
2023-01-24T14:56:56.585Z,94351.22
2023-01-24T15:00:08.313Z,94358.03
2023-01-24T15:03:21.352Z,94362.25
2023-01-24T15:06:27.220Z,94367.47
2023-01-24T15:09:32.327Z,94371.69
2023-01-24T15:12:39.075Z,94374.31
2023-01-24T15:15:43.997Z,94377.66
2023-01-24T15:18:53.658Z,94383.31
2023-01-24T15:21:59.914Z,94387.72
2023-01-24T15:25:06.804Z,94392.31
2023-01-24T15:28:20.773Z,94392.91
2023-01-24T15:31:30.343Z,94396.31
2023-01-24T15:34:38.061Z,94408.34
2023-01-24T15:37:43.320Z,94412.31
2023-01-24T15:40:57.770Z,94416.16
2023-01-24T15:44:09.738Z,94424.56
2023-01-24T15:47:36.668Z,94428.34
2023-01-24T15:51:05.572Z,94430.47
2023-01-24T15:54:16.549Z,94437.06
2023-01-24T15:57:25.536Z,94437.63
2023-01-24T16:00:30.735Z,94436.56
2023-01-24T16:03:35.831Z,94436.56
2023-01-24T16:06:43.587Z,94435.50
2023-01-24T16:09:49.598Z,94440.91
2023-01-24T16:12:55.883Z,94435.06
2023-01-24T16:16:03.245Z,94435.41
2023-01-24T16:19:17.202Z,94451.25
2023-01-24T16:22:25.034Z,94440.38
2023-01-24T16:25:30.546Z,94435.97
2023-01-24T16:28:35.545Z,94446.59
2023-01-24T16:31:40.503Z,94443.53
2023-01-24T16:34:45.426Z,94439.84
2023-01-24T16:37:52.966Z,94456.72
2023-01-24T16:40:57.777Z,94455.91
2023-01-24T16:44:02.783Z,94463.91
2023-01-24T16:47:07.693Z,94465.91
2023-01-24T16:50:14.979Z,94471.31
2023-01-24T16:53:26.628Z,94467.91
2023-01-24T16:56:32.926Z,94460.25
2023-01-24T16:59:37.789Z,94462.22
2023-01-24T17:02:42.780Z,94471.03
2023-01-24T17:05:47.687Z,94469.44
